Time;durP1;ratioP1;P1;durP2;ratioP2;P2;SDS_P1;SDS_P2;PMS_P1;PMS_P2;Temp;Humidity;BMP_temperature;BMP_pressure;BME280_temperature;BME280_humidity;BME280_pressure;Samples;Min_cycle;Max_cycle;Signal;HPM_P1;HPM_P2
2023/04/11 00:00:26;;;;;;;3.00;2.70;;;15.10;93.50;;;;;;5015308;28;20547;-63
2023/04/11 00:02:51;;;;;;;3.00;2.60;;;14.80;99.10;;;;;;5020891;28;21035;-63
2023/04/11 00:05:17;;;;;;;4.03;2.60;;;14.60;99.90;;;;;;5018399;28;20811;-63
2023/04/11 00:07:42;;;;;;;3.40;2.57;;;14.30;99.90;;;;;;5016115;28;20207;-63
2023/04/11 00:10:08;;;;;;;4.03;3.40;;;14.20;99.90;;;;;;5015295;28;20224;-63
2023/04/11 00:12:34;;;;;;;3.70;2.50;;;14.10;99.90;;;;;;5024844;28;20172;-63
2023/04/11 00:14:59;;;;;;;3.30;2.57;;;14.00;99.90;;;;;;5018781;28;20445;-63
2023/04/11 00:17:27;;;;;;;4.07;2.70;;;13.80;99.90;;;;;;5017767;28;20596;-63
2023/04/11 00:19:54;;;;;;;5.23;2.00;;;13.70;99.90;;;;;;5016308;28;20659;-63
2023/04/11 00:22:22;;;;;;;3.30;2.40;;;13.50;99.90;;;;;;5018171;28;20435;-62
2023/04/11 00:24:48;;;;;;;4.93;2.47;;;13.60;99.90;;;;;;5020588;28;20557;-64
2023/04/11 00:27:14;;;;;;;3.57;2.23;;;13.50;99.90;;;;;;5014917;28;20431;-64
2023/04/11 00:29:40;;;;;;;2.70;2.33;;;13.40;99.90;;;;;;5014016;28;20197;-63
2023/04/11 00:32:05;;;;;;;4.57;2.50;;;13.40;99.90;;;;;;5006101;28;20458;-63
2023/04/11 00:34:32;;;;;;;9.13;2.63;;;13.30;99.90;;;;;;5017331;28;20215;-63
2023/04/11 00:36:58;;;;;;;4.57;2.83;;;13.30;99.90;;;;;;5014717;28;20252;-63
2023/04/11 00:39:25;;;;;;;6.27;2.77;;;13.20;99.90;;;;;;5012258;28;21138;-63
2023/04/11 00:41:51;;;;;;;4.23;2.80;;;13.30;99.90;;;;;;5015240;28;20208;-63
2023/04/11 00:44:16;;;;;;;4.73;3.63;;;13.20;99.90;;;;;;5016466;28;20459;-61
2023/04/11 00:46:44;;;;;;;3.80;2.80;;;13.20;99.90;;;;;;5018300;28;20191;-63
2023/04/11 00:49:10;;;;;;;4.70;2.50;;;13.20;99.90;;;;;;5018923;28;20173;-63
2023/04/11 00:51:36;;;;;;;3.40;2.47;;;13.20;99.90;;;;;;5013556;28;20463;-63
2023/04/11 00:54:02;;;;;;;3.13;2.53;;;13.20;99.90;;;;;;5016716;28;20450;-63
2023/04/11 00:56:28;;;;;;;5.57;3.10;;;13.10;99.90;;;;;;5011648;28;20788;-63
2023/04/11 00:58:54;;;;;;;3.93;2.67;;;13.10;99.90;;;;;;5018834;28;20314;-63
2023/04/11 01:01:22;;;;;;;3.70;2.20;;;13.00;99.90;;;;;;5012200;28;20217;-63
2023/04/11 01:03:48;;;;;;;3.30;2.10;;;13.00;99.90;;;;;;5009525;28;21080;-63
2023/04/11 01:06:17;;;;;;;2.73;1.63;;;12.90;99.90;;;;;;5011588;28;20447;-63
2023/04/11 01:08:44;;;;;;;3.83;2.07;;;12.80;99.90;;;;;;5007118;28;20452;-64
2023/04/11 01:11:12;;;;;;;4.23;1.90;;;13.00;99.90;;;;;;5011920;28;20469;-64
2023/04/11 01:13:41;;;;;;;3.50;1.60;;;12.90;99.90;;;;;;5020926;28;21042;-64
2023/04/11 01:16:08;;;;;;;4.00;1.80;;;13.00;99.90;;;;;;5011724;28;20439;-63
2023/04/11 01:18:35;;;;;;;5.73;1.90;;;13.00;99.90;;;;;;5016354;28;20450;-64
2023/04/11 01:21:01;;;;;;;2.77;1.70;;;13.20;99.90;;;;;;5016198;28;20460;-64
2023/04/11 01:23:27;;;;;;;2.73;1.57;;;13.30;99.90;;;;;;5015717;28;20956;-64
2023/04/11 01:25:53;;;;;;;3.50;1.90;;;13.30;99.90;;;;;;5019430;28;20235;-64
2023/04/11 01:28:19;;;;;;;3.63;1.50;;;13.20;99.90;;;;;;5021701;28;20427;-63
2023/04/11 01:30:45;;;;;;;3.97;1.83;;;13.20;99.90;;;;;;5017781;28;20816;-63
2023/04/11 01:33:12;;;;;;;2.53;1.50;;;13.30;99.90;;;;;;5016015;28;20407;-63
2023/04/11 01:35:38;;;;;;;2.80;1.90;;;13.40;99.90;;;;;;5018239;28;20463;-64
2023/04/11 01:38:04;;;;;;;3.87;1.93;;;13.30;99.90;;;;;;5016017;28;20447;-63
2023/04/11 01:40:34;;;;;;;2.27;1.50;;;13.20;99.90;;;;;;5017261;28;20454;-63
2023/04/11 01:43:02;;;;;;;3.00;1.90;;;13.10;99.90;;;;;;5016467;28;20434;-63
2023/04/11 01:45:29;;;;;;;2.87;1.70;;;13.30;99.90;;;;;;5018784;28;20464;-63
2023/04/11 01:47:55;;;;;;;5.23;1.90;;;13.40;99.90;;;;;;5016180;28;20461;-63
2023/04/11 01:50:22;;;;;;;3.30;1.60;;;13.40;99.90;;;;;;5015160;28;20543;-63
2023/04/11 01:52:48;;;;;;;2.10;1.67;;;13.30;99.90;;;;;;5013221;28;21012;-63
2023/04/11 01:55:14;;;;;;;2.07;1.40;;;13.20;99.90;;;;;;5014877;28;20549;-64
2023/04/11 01:57:40;;;;;;;3.60;1.80;;;13.20;99.90;;;;;;5014304;28;20925;-63
2023/04/11 02:00:09;;;;;;;3.30;1.50;;;13.20;99.90;;;;;;5017579;28;20463;-63
2023/04/11 02:02:35;;;;;;;5.13;1.90;;;13.20;99.90;;;;;;5017232;28;20185;-64
2023/04/11 02:05:01;;;;;;;2.47;1.60;;;13.20;99.90;;;;;;5011759;28;21046;-63
2023/04/11 02:07:26;;;;;;;2.43;1.30;;;13.10;99.90;;;;;;5017224;28;20188;-64
2023/04/11 02:09:52;;;;;;;2.87;1.70;;;13.20;99.90;;;;;;5010889;28;20250;-64
2023/04/11 02:12:18;;;;;;;3.70;1.70;;;13.20;99.90;;;;;;5016336;28;20246;-64
2023/04/11 02:14:44;;;;;;;2.83;1.50;;;13.00;99.90;;;;;;5016192;28;20810;-64
2023/04/11 02:17:11;;;;;;;4.60;1.90;;;13.00;99.90;;;;;;5016482;28;20189;-63
2023/04/11 02:19:40;;;;;;;4.47;2.20;;;12.90;99.90;;;;;;5016883;28;20463;-63
2023/04/11 02:22:07;;;;;;;4.53;2.07;;;13.00;99.90;;;;;;5013083;28;20443;-63
2023/04/11 02:24:33;;;;;;;2.50;1.50;;;12.90;99.90;;;;;;5010595;28;20485;-63
2023/04/11 02:27:00;;;;;;;3.17;1.97;;;13.00;99.90;;;;;;5015278;28;20443;-64
2023/04/11 02:29:26;;;;;;;3.90;2.03;;;13.10;99.90;;;;;;5016679;28;20184;-63
2023/04/11 02:31:52;;;;;;;2.63;1.87;;;13.00;99.90;;;;;;5012281;28;20461;-64
2023/04/11 02:34:17;;;;;;;2.40;1.60;;;13.10;99.90;;;;;;5008067;28;20439;-63
2023/04/11 02:36:44;;;;;;;2.97;1.83;;;13.10;99.90;;;;;;5009384;28;20188;-63
2023/04/11 02:39:10;;;;;;;2.83;1.53;;;13.00;99.90;;;;;;5013120;28;20965;-64
2023/04/11 02:41:40;;;;;;;2.67;1.60;;;13.00;99.90;;;;;;5009290;28;20494;-63
2023/04/11 02:44:08;;;;;;;3.67;1.63;;;12.90;99.90;;;;;;5015398;28;20490;-63
2023/04/11 02:46:34;;;;;;;4.77;1.90;;;12.90;99.90;;;;;;5017789;28;20439;-62
2023/04/11 02:48:59;;;;;;;2.30;2.10;;;12.90;99.90;;;;;;5011598;28;20909;-63
2023/04/11 02:51:25;;;;;;;3.17;1.77;;;12.90;99.90;;;;;;5014881;28;20211;-63
2023/04/11 02:53:51;;;;;;;5.30;1.90;;;12.90;99.90;;;;;;5012171;28;20185;-63
2023/04/11 02:56:18;;;;;;;2.90;1.53;;;12.80;99.90;;;;;;5018902;28;20465;-63
2023/04/11 02:58:47;;;;;;;2.60;1.63;;;12.80;99.90;;;;;;5015957;28;20278;-63
2023/04/11 03:01:15;;;;;;;3.43;1.70;;;12.70;99.90;;;;;;5012477;28;20558;-63
2023/04/11 03:03:41;;;;;;;2.90;1.60;;;12.60;99.90;;;;;;5016939;28;20515;-63
2023/04/11 03:06:07;;;;;;;4.20;2.90;;;12.70;99.90;;;;;;5013466;28;20914;-63
2023/04/11 03:08:34;;;;;;;2.93;1.50;;;12.60;99.90;;;;;;5012878;28;20526;-63
2023/04/11 03:11:01;;;;;;;7.20;1.73;;;12.50;99.90;;;;;;5012701;28;20259;-63
2023/04/11 03:13:27;;;;;;;3.40;1.53;;;12.60;99.90;;;;;;5015473;28;20518;-63
2023/04/11 03:15:52;;;;;;;4.60;1.70;;;12.50;99.90;;;;;;5016550;28;20427;-63
2023/04/11 03:18:21;;;;;;;5.30;1.80;;;12.60;99.90;;;;;;5017416;28;20567;-63
2023/04/11 03:20:47;;;;;;;3.00;1.87;;;12.70;99.90;;;;;;5014350;28;20704;-63
2023/04/11 03:23:12;;;;;;;4.33;1.70;;;12.50;99.90;;;;;;5020226;28;21043;-63
2023/04/11 03:25:39;;;;;;;4.60;1.80;;;12.60;99.90;;;;;;5018273;28;20254;-63
2023/04/11 03:28:05;;;;;;;4.80;1.80;;;12.60;99.90;;;;;;5016035;28;20658;-64
2023/04/11 03:30:31;;;;;;;6.30;1.90;;;12.60;99.90;;;;;;5017819;28;20521;-63
2023/04/11 03:32:59;;;;;;;4.97;1.90;;;12.50;99.90;;;;;;5018289;28;20212;-63
2023/04/11 03:35:26;;;;;;;4.70;2.00;;;12.40;99.90;;;;;;5018361;28;20438;-63
2023/04/11 03:37:51;;;;;;;8.00;2.20;;;12.40;99.90;;;;;;5017118;28;20447;-63
2023/04/11 03:40:17;;;;;;;4.03;1.83;;;12.40;99.90;;;;;;5011042;28;20447;-63
2023/04/11 03:42:46;;;;;;;3.47;1.77;;;12.40;99.90;;;;;;5015383;28;20196;-63
2023/04/11 03:45:11;;;;;;;6.03;1.80;;;12.30;99.90;;;;;;5011512;28;21166;-64
2023/04/11 03:47:39;;;;;;;3.47;1.80;;;12.40;99.90;;;;;;5016563;28;20427;-63
2023/04/11 03:50:06;;;;;;;3.27;1.70;;;12.20;99.90;;;;;;5010263;28;20310;-64
2023/04/11 03:52:31;;;;;;;3.50;2.07;;;12.30;99.90;;;;;;5011432;28;20490;-63
2023/04/11 03:54:57;;;;;;;5.60;2.07;;;12.30;99.90;;;;;;5012935;28;20821;-64
2023/04/11 03:57:25;;;;;;;3.80;1.60;;;12.30;99.90;;;;;;5017822;28;20738;-63
2023/04/11 03:59:51;;;;;;;3.00;1.90;;;12.20;99.90;;;;;;5013051;28;20581;-63
2023/04/11 04:02:17;;;;;;;3.43;1.70;;;12.20;99.90;;;;;;5009450;28;20505;-63
2023/04/11 04:04:45;;;;;;;2.33;1.50;;;12.20;99.90;;;;;;5010230;28;20466;-63
2023/04/11 04:07:11;;;;;;;3.13;1.60;;;12.00;99.90;;;;;;5011219;28;20666;-63
2023/04/11 04:09:38;;;;;;;3.60;2.17;;;11.90;99.90;;;;;;5016460;28;20455;-63
2023/04/11 04:12:04;;;;;;;6.33;1.80;;;12.00;99.90;;;;;;5012408;28;20446;-63
2023/04/11 04:14:29;;;;;;;2.90;1.47;;;11.90;99.90;;;;;;5017131;28;21011;-64
2023/04/11 04:16:55;;;;;;;2.93;1.40;;;11.90;99.90;;;;;;5021778;28;20239;-63
2023/04/11 04:19:21;;;;;;;2.87;1.20;;;11.80;99.90;;;;;;5014058;28;20193;-63
2023/04/11 04:21:46;;;;;;;2.37;1.77;;;11.80;99.90;;;;;;5014685;28;20210;-63
2023/04/11 04:24:12;;;;;;;2.27;1.40;;;11.80;99.90;;;;;;5017801;28;20188;-63
2023/04/11 04:26:38;;;;;;;6.73;2.03;;;11.90;99.90;;;;;;5020639;28;20567;-63
2023/04/11 04:29:04;;;;;;;4.17;1.70;;;12.00;99.90;;;;;;5016216;28;20240;-63
2023/04/11 04:31:32;;;;;;;4.03;1.70;;;12.00;99.90;;;;;;5017800;28;20466;-63
2023/04/11 04:34:07;;;;;;;4.10;1.90;;;12.00;99.90;;;;;;5018016;28;20948;-63
2023/04/11 04:36:45;;;;;;;7.03;2.10;;;12.00;99.90;;;;;;5013422;28;20435;-64
2023/04/11 04:39:16;;;;;;;7.40;2.00;;;12.00;99.90;;;;;;5013901;28;20442;-62
2023/04/11 04:41:42;;;;;;;4.40;1.87;;;12.00;99.90;;;;;;5015673;28;20525;-62
2023/04/11 04:44:08;;;;;;;4.50;1.53;;;12.10;99.90;;;;;;5016913;28;20919;-63
2023/04/11 04:46:35;;;;;;;5.20;2.30;;;12.10;99.90;;;;;;5017433;28;20497;-62
2023/04/11 04:49:04;;;;;;;9.20;2.20;;;12.10;99.90;;;;;;5017527;28;20181;-63
2023/04/11 04:51:29;;;;;;;4.07;2.20;;;12.10;99.90;;;;;;5017644;28;20867;-62
2023/04/11 04:53:56;;;;;;;4.20;2.00;;;12.30;99.90;;;;;;5015744;28;20470;-62
2023/04/11 04:56:22;;;;;;;4.17;1.90;;;12.20;99.90;;;;;;5016617;28;20242;-63
2023/04/11 04:58:48;;;;;;;4.60;2.00;;;12.20;99.90;;;;;;5019305;28;20443;-63
2023/04/11 05:01:15;;;;;;;2.63;2.00;;;12.20;99.90;;;;;;5019911;28;20868;-63
2023/04/11 05:03:41;;;;;;;2.57;1.80;;;12.10;99.90;;;;;;5012814;28;20215;-63
2023/04/11 05:06:08;;;;;;;3.73;1.70;;;12.10;99.90;;;;;;5011612;28;21158;-63
2023/04/11 05:08:33;;;;;;;7.93;1.83;;;12.10;99.90;;;;;;5011192;28;20184;-63
2023/04/11 05:11:00;;;;;;;3.03;1.47;;;12.10;99.90;;;;;;5011066;28;20482;-63
2023/04/11 05:13:25;;;;;;;2.37;1.63;;;12.10;99.90;;;;;;5015274;28;20180;-63
2023/04/11 05:15:53;;;;;;;2.00;1.40;;;12.20;99.90;;;;;;5019256;28;20449;-63
2023/04/11 05:18:18;;;;;;;2.10;1.40;;;12.10;99.90;;;;;;5014516;28;20178;-63
2023/04/11 05:20:44;;;;;;;2.33;1.40;;;12.10;99.90;;;;;;5017913;28;20451;-63
2023/04/11 05:23:10;;;;;;;3.83;1.70;;;12.10;99.90;;;;;;5018946;28;20189;-61
2023/04/11 05:25:35;;;;;;;2.83;1.50;;;12.00;99.90;;;;;;5013332;28;20258;-63
2023/04/11 05:28:01;;;;;;;5.50;1.70;;;12.00;99.90;;;;;;5019754;28;20189;-62
2023/04/11 05:30:26;;;;;;;3.03;1.40;;;11.90;99.90;;;;;;5018786;28;20284;-63
2023/04/11 05:32:52;;;;;;;2.27;1.40;;;11.80;99.90;;;;;;5022965;28;20627;-62
2023/04/11 05:35:17;;;;;;;5.50;1.80;;;11.80;99.90;;;;;;5015392;28;20582;-62
2023/04/11 05:37:43;;;;;;;2.97;1.50;;;11.80;99.90;;;;;;5016850;28;20234;-62
2023/04/11 05:40:09;;;;;;;2.60;1.30;;;11.70;99.90;;;;;;5011443;28;20201;-63
2023/04/11 05:42:35;;;;;;;3.50;1.80;;;11.70;99.90;;;;;;5018009;28;20223;-63
2023/04/11 05:45:00;;;;;;;8.13;1.47;;;11.70;99.90;;;;;;5016683;28;20547;-62
2023/04/11 05:47:26;;;;;;;6.40;2.70;;;11.80;99.90;;;;;;5016623;28;20211;-62
2023/04/11 05:49:51;;;;;;;3.30;1.57;;;11.80;99.90;;;;;;5015685;28;20201;-63
2023/04/11 05:52:17;;;;;;;2.60;1.90;;;11.70;99.90;;;;;;5009005;28;21018;-63
2023/04/11 05:54:42;;;;;;;2.63;1.40;;;11.80;99.90;;;;;;5014967;28;20658;-62
2023/04/11 05:57:08;;;;;;;2.87;1.63;;;11.60;99.90;;;;;;5008659;28;20177;-62
2023/04/11 05:59:34;;;;;;;6.50;1.60;;;11.60;99.90;;;;;;5018355;28;20188;-63
2023/04/11 06:02:00;;;;;;;3.30;1.20;;;11.60;99.90;;;;;;5013235;28;20192;-62
2023/04/11 06:04:26;;;;;;;3.77;1.50;;;11.70;99.90;;;;;;5016179;28;21070;-63
2023/04/11 06:06:52;;;;;;;2.50;1.53;;;11.60;99.90;;;;;;5011496;28;20554;-63
2023/04/11 06:09:19;;;;;;;3.17;1.80;;;11.60;99.90;;;;;;5014484;28;20343;-63
2023/04/11 06:11:45;;;;;;;2.93;1.53;;;11.60;99.90;;;;;;5012229;28;20558;-62
2023/04/11 06:14:10;;;;;;;2.43;1.60;;;11.50;99.90;;;;;;5015515;28;20632;-63
2023/04/11 06:16:37;;;;;;;4.20;1.90;;;11.60;99.90;;;;;;5014962;28;20184;-63
2023/04/11 06:19:04;;;;;;;3.53;1.67;;;11.50;99.90;;;;;;5015754;28;20271;-62
2023/04/11 06:21:31;;;;;;;5.17;2.00;;;11.60;99.90;;;;;;5016157;28;20452;-63
2023/04/11 06:24:04;;;;;;;5.77;1.67;;;11.50;99.90;;;;;;5016522;28;20440;-63
2023/04/11 06:26:30;;;;;;;2.37;1.50;;;11.60;99.90;;;;;;5015997;28;20440;-63
2023/04/11 06:28:55;;;;;;;5.03;1.80;;;11.60;99.90;;;;;;5012754;28;20435;-63
2023/04/11 06:31:21;;;;;;;2.63;1.63;;;11.60;99.90;;;;;;5013830;28;20283;-63
2023/04/11 06:33:46;;;;;;;3.30;1.77;;;11.60;99.90;;;;;;5014123;28;20184;-62
2023/04/11 06:36:12;;;;;;;3.13;1.70;;;11.70;99.90;;;;;;5011675;28;20198;-63
2023/04/11 06:38:39;;;;;;;3.43;2.00;;;11.60;99.90;;;;;;5011114;28;20212;-64
2023/04/11 06:41:05;;;;;;;4.60;2.00;;;11.60;99.90;;;;;;5012366;28;20224;-64
2023/04/11 06:43:31;;;;;;;4.47;1.73;;;11.60;99.90;;;;;;5032577;28;20464;-64
2023/04/11 06:45:56;;;;;;;4.43;1.73;;;11.70;99.90;;;;;;5014034;28;20954;-64
2023/04/11 06:48:23;;;;;;;4.10;1.40;;;11.70;99.90;;;;;;5012890;28;20427;-63
2023/04/11 06:50:49;;;;;;;4.27;1.70;;;11.70;99.90;;;;;;5012833;28;20254;-64
2023/04/11 06:53:14;;;;;;;3.23;1.60;;;11.70;99.90;;;;;;5009045;28;20428;-64
2023/04/11 06:55:40;;;;;;;7.23;1.87;;;11.80;99.90;;;;;;5007715;28;20809;-64
2023/04/11 06:58:05;;;;;;;4.00;2.00;;;11.80;99.90;;;;;;5009301;28;20336;-61
2023/04/11 07:00:31;;;;;;;3.50;2.03;;;11.80;99.90;;;;;;5006378;28;20204;-63
2023/04/11 07:02:58;;;;;;;3.20;1.70;;;11.80;99.90;;;;;;5009024;28;20207;-63
2023/04/11 07:05:25;;;;;;;7.20;1.90;;;12.00;99.90;;;;;;4989148;28;20217;-64
2023/04/11 07:07:51;;;;;;;6.00;2.00;;;12.00;99.90;;;;;;5009109;28;20440;-64
2023/04/11 07:10:16;;;;;;;4.87;1.83;;;12.00;99.90;;;;;;5006423;28;20443;-64
2023/04/11 07:12:42;;;;;;;3.10;1.80;;;12.10;99.90;;;;;;5007807;28;20791;-63
2023/04/11 07:15:08;;;;;;;4.73;2.00;;;12.10;99.90;;;;;;5006632;28;20192;-63
2023/04/11 07:17:34;;;;;;;8.00;2.93;;;12.20;99.90;;;;;;5009696;28;20184;-63
2023/04/11 07:20:00;;;;;;;6.20;1.93;;;12.30;99.90;;;;;;5008231;28;20540;-64
2023/04/11 07:22:25;;;;;;;3.80;1.87;;;12.50;99.90;;;;;;5011641;28;20180;-64
2023/04/11 07:24:56;;;;;;;5.70;1.90;;;12.50;99.90;;;;;;5018434;28;20287;-65
2023/04/11 07:27:23;;;;;;;4.37;1.87;;;12.40;99.90;;;;;;5014667;28;20291;-65
2023/04/11 07:29:49;;;;;;;4.80;2.17;;;12.40;99.90;;;;;;5013782;28;21256;-67
2023/04/11 07:32:14;;;;;;;5.23;2.10;;;12.50;99.90;;;;;;5013624;28;20555;-65
2023/04/11 07:34:40;;;;;;;5.20;1.80;;;12.40;99.90;;;;;;5018168;28;20187;-65
2023/04/11 07:37:06;;;;;;;3.60;1.73;;;12.40;99.90;;;;;;5011690;28;20181;-65
2023/04/11 07:39:33;;;;;;;4.00;2.07;;;12.50;99.90;;;;;;5012559;28;20189;-65
2023/04/11 07:41:58;;;;;;;2.83;1.67;;;12.60;99.90;;;;;;5004400;28;20965;-66
2023/04/11 07:44:24;;;;;;;4.63;1.83;;;12.60;99.90;;;;;;5006698;28;20463;-65
2023/04/11 07:46:50;;;;;;;10.33;2.47;;;12.60;99.90;;;;;;5010748;28;20184;-63
2023/04/11 07:49:15;;;;;;;4.90;1.77;;;12.60;99.90;;;;;;5014910;28;20184;-65
2023/04/11 07:51:41;;;;;;;6.60;2.00;;;12.60;99.90;;;;;;5017641;28;20755;-65
2023/04/11 07:54:08;;;;;;;7.97;2.33;;;12.50;99.90;;;;;;5014937;28;20897;-65
2023/04/11 07:56:34;;;;;;;5.73;2.70;;;12.50;99.90;;;;;;5017039;28;20180;-65
2023/04/11 07:59:00;;;;;;;8.00;2.67;;;12.60;99.90;;;;;;5013424;28;20439;-64
2023/04/11 08:01:26;;;;;;;8.03;2.47;;;12.70;99.90;;;;;;5008027;28;20212;-65
2023/04/11 08:03:55;;;;;;;8.93;2.63;;;12.60;99.90;;;;;;4997170;28;21224;-62
2023/04/11 08:06:21;;;;;;;8.40;2.30;;;12.50;99.90;;;;;;5010841;28;21064;-64
2023/04/11 08:08:48;;;;;;;6.30;2.10;;;12.40;99.90;;;;;;5009190;28;20443;-64
2023/04/11 08:11:14;;;;;;;9.90;2.60;;;12.30;99.90;;;;;;5003117;28;20467;-63
2023/04/11 08:13:40;;;;;;;9.90;2.70;;;12.30;99.90;;;;;;5009998;28;20446;-63
2023/04/11 08:16:08;;;;;;;10.30;3.07;;;12.30;99.90;;;;;;5012659;28;20443;-64
2023/04/11 08:18:34;;;;;;;4.97;2.00;;;12.30;99.90;;;;;;5011030;28;20447;-63
2023/04/11 08:21:01;;;;;;;6.63;2.20;;;12.10;99.90;;;;;;5011893;28;20513;-64
2023/04/11 08:23:28;;;;;;;9.73;2.60;;;12.00;99.90;;;;;;5008788;28;20444;-63
2023/04/11 08:25:54;;;;;;;7.23;2.37;;;11.80;99.90;;;;;;5017043;28;20473;-63
2023/04/11 08:28:21;;;;;;;6.00;3.00;;;12.10;99.90;;;;;;5007337;28;20440;-63
2023/04/11 08:30:47;;;;;;;7.68;2.53;;;12.20;99.90;;;;;;5014430;28;20965;-63
2023/04/11 08:33:14;;;;;;;6.23;2.70;;;12.30;99.90;;;;;;5010525;28;20193;-64
2023/04/11 08:35:41;;;;;;;9.17;2.40;;;12.40;99.90;;;;;;5013842;28;20223;-62
2023/04/11 08:38:08;;;;;;;5.87;2.33;;;12.50;99.90;;;;;;5010279;28;20452;-62
2023/04/11 08:40:34;;;;;;;5.67;2.50;;;12.50;99.90;;;;;;5007310;28;20504;-62
2023/04/11 08:43:00;;;;;;;5.13;2.00;;;12.60;99.90;;;;;;5011634;28;20440;-63
2023/04/11 08:45:26;;;;;;;2.80;2.17;;;12.60;99.90;;;;;;5013826;28;20916;-62
2023/04/11 08:47:52;;;;;;;6.70;2.63;;;12.60;99.90;;;;;;5014357;28;20454;-62
2023/04/11 08:50:18;;;;;;;12.40;3.27;;;12.40;99.90;;;;;;5008901;28;20455;-62
2023/04/11 08:52:45;;;;;;;11.17;2.80;;;12.40;99.90;;;;;;5014394;28;20244;-62
2023/04/11 08:55:11;;;;;;;8.90;2.70;;;12.40;99.90;;;;;;5009145;28;20274;-62
2023/04/11 08:57:37;;;;;;;5.07;2.80;;;12.40;99.90;;;;;;5012217;28;20447;-63
2023/04/11 09:00:13;;;;;;;12.23;3.67;;;12.50;99.90;;;;;;5014680;28;20525;-62
2023/04/11 09:02:57;;;;;;;9.40;2.70;;;12.50;99.90;;;;;;5012247;28;20465;-62
2023/04/11 09:05:34;;;;;;;7.93;3.03;;;12.60;99.90;;;;;;5007100;28;20474;-61
2023/04/11 09:08:02;;;;;;;8.10;2.40;;;12.80;99.90;;;;;;5013068;28;20444;-63
2023/04/11 09:10:28;;;;;;;6.50;2.80;;;12.90;99.90;;;;;;5009733;28;20455;-63
2023/04/11 09:12:55;;;;;;;4.20;2.63;;;13.00;99.90;;;;;;5012321;28;20435;-63
2023/04/11 09:15:26;;;;;;;7.50;2.80;;;13.00;99.90;;;;;;5008275;28;20293;-64
2023/04/11 09:17:53;;;;;;;6.83;2.47;;;13.00;99.90;;;;;;5012186;28;20502;-65
2023/04/11 09:20:28;;;;;;;6.60;2.20;;;13.00;99.90;;;;;;5010053;28;20479;-64
2023/04/11 09:22:55;;;;;;;5.07;2.63;;;13.00;99.90;;;;;;5012055;28;20512;-62
2023/04/11 09:25:22;;;;;;;7.00;2.97;;;13.20;99.90;;;;;;5012171;28;20960;-61
2023/04/11 09:27:48;;;;;;;7.23;2.63;;;13.30;99.90;;;;;;5010251;28;20471;-63
2023/04/11 09:30:25;;;;;;;7.57;2.73;;;13.50;99.90;;;;;;5009450;28;21020;-63
2023/04/11 09:32:52;;;;;;;7.10;2.67;;;13.50;99.90;;;;;;5010197;28;21263;-63
2023/04/11 09:35:19;;;;;;;5.70;2.80;;;13.70;99.90;;;;;;5004530;28;20440;-63
2023/04/11 09:37:56;;;;;;;5.33;2.60;;;13.70;99.90;;;;;;5011326;28;21011;-60
2023/04/11 09:40:24;;;;;;;7.30;2.90;;;13.70;99.90;;;;;;5006989;28;20529;-64
2023/04/11 09:43:01;;;;;;;4.93;2.70;;;13.80;99.90;;;;;;5011095;28;20960;-64
2023/04/11 09:45:29;;;;;;;6.63;2.57;;;13.80;99.90;;;;;;5012963;28;20490;-64
2023/04/11 09:47:56;;;;;;;4.70;2.20;;;13.80;99.90;;;;;;5014723;28;20444;-63
2023/04/11 09:50:23;;;;;;;8.33;2.40;;;13.80;99.90;;;;;;5007961;28;21345;-63
2023/04/11 09:52:49;;;;;;;6.27;2.40;;;13.90;99.90;;;;;;5012130;28;20961;-63
2023/04/11 09:55:21;;;;;;;6.33;2.50;;;14.10;99.90;;;;;;5012167;28;21075;-63
2023/04/11 09:57:51;;;;;;;4.07;2.50;;;14.00;99.90;;;;;;5013595;28;20496;-63
2023/04/11 10:00:18;;;;;;;10.90;3.73;;;13.90;99.90;;;;;;5007789;28;20463;-63
2023/04/11 10:02:47;;;;;;;8.50;2.60;;;13.80;99.90;;;;;;5011889;28;20459;-62
2023/04/11 10:05:14;;;;;;;7.50;3.07;;;13.80;99.90;;;;;;5008049;28;20477;-62
2023/04/11 10:07:53;;;;;;;7.20;2.63;;;13.80;99.90;;;;;;5012105;28;20524;-62
2023/04/11 10:10:20;;;;;;;10.60;2.97;;;13.70;99.90;;;;;;5005859;28;20470;-62
2023/04/11 10:12:47;;;;;;;9.13;2.47;;;13.80;99.90;;;;;;5007981;28;20471;-62
2023/04/11 10:15:13;;;;;;;7.83;2.50;;;14.00;99.90;;;;;;5007382;28;20439;-62
2023/04/11 10:17:39;;;;;;;6.43;2.83;;;14.10;99.90;;;;;;5011802;28;20438;-63
2023/04/11 10:20:36;;;;;;;3.97;2.23;;;14.30;99.90;;;;;;5009416;28;20463;-63
2023/04/11 10:23:02;;;;;;;3.43;2.40;;;14.30;99.90;;;;;;5009671;28;21064;-63
2023/04/11 10:25:28;;;;;;;9.47;4.00;;;14.20;99.90;;;;;;5010769;28;20471;-62
2023/04/11 10:28:00;;;;;;;7.10;3.63;;;14.00;99.90;;;;;;5017780;28;20260;-62
2023/04/11 10:30:43;;;;;;;4.67;2.67;;;14.00;99.90;;;;;;5008628;28;20555;-63
2023/04/11 10:33:11;;;;;;;5.50;2.33;;;14.00;99.90;;;;;;5009133;28;20431;-62
2023/04/11 10:35:55;;;;;;;3.97;2.40;;;13.80;99.90;;;;;;5010803;28;20436;-62
2023/04/11 10:38:36;;;;;;;6.87;2.53;;;13.70;99.90;;;;;;5011924;28;20439;-62
2023/04/11 10:44:14;;;;;;;8.63;3.47;;;14.00;99.90;;;;;;5007668;28;20459;-62
2023/04/11 10:46:54;;;;;;;7.37;2.77;;;14.20;99.90;;;;;;5005534;28;20466;-62
2023/04/11 10:49:32;;;;;;;6.93;2.57;;;14.30;99.90;;;;;;5004896;28;21521;-62
2023/04/11 10:52:20;;;;;;;5.63;2.63;;;14.10;99.90;;;;;;5004912;28;20439;-63
2023/04/11 10:54:47;;;;;;;7.93;2.90;;;14.30;99.90;;;;;;5010638;28;21014;-63
2023/04/11 10:57:13;;;;;;;10.43;3.33;;;14.30;99.90;;;;;;5023715;28;20431;-63
2023/04/11 10:59:39;;;;;;;4.40;2.53;;;14.30;99.90;;;;;;5011251;28;20964;-63
2023/04/11 11:02:04;;;;;;;10.30;2.80;;;14.40;99.90;;;;;;5004498;28;20209;-63
2023/04/11 11:04:31;;;;;;;7.77;2.80;;;14.50;99.90;;;;;;5010072;28;20713;-64
2023/04/11 11:07:01;;;;;;;5.13;2.93;;;14.60;99.90;;;;;;5004872;28;20272;-63
2023/04/11 11:09:27;;;;;;;7.77;2.73;;;14.70;99.90;;;;;;5004788;28;20427;-63
2023/04/11 11:12:06;;;;;;;12.73;3.00;;;14.70;99.90;;;;;;5007336;28;20902;-63
2023/04/11 11:14:32;;;;;;;6.90;2.83;;;14.90;99.90;;;;;;5002958;28;20716;-64
2023/04/11 11:16:57;;;;;;;5.90;2.80;;;14.80;99.90;;;;;;5005774;28;20534;-64
2023/04/11 11:19:23;;;;;;;5.10;2.70;;;14.80;99.90;;;;;;5012039;28;20204;-64
2023/04/11 11:21:50;;;;;;;3.13;2.30;;;14.70;99.90;;;;;;5010980;28;20661;-64
2023/04/11 11:24:23;;;;;;;7.67;2.80;;;14.60;99.90;;;;;;5013557;28;20189;-64
2023/04/11 11:26:49;;;;;;;5.80;2.70;;;14.80;99.90;;;;;;5018086;28;20456;-62
2023/04/11 11:29:15;;;;;;;7.17;3.00;;;15.00;99.90;;;;;;5013663;28;20437;-62
2023/04/11 11:31:46;;;;;;;4.63;2.30;;;14.90;99.90;;;;;;5010524;28;20216;-62
2023/04/11 11:34:12;;;;;;;4.00;2.50;;;14.80;99.90;;;;;;5010854;28;20907;-61
2023/04/11 11:36:41;;;;;;;6.43;2.73;;;14.60;99.90;;;;;;5012813;28;20457;-62
2023/04/11 11:39:09;;;;;;;5.00;2.37;;;14.60;99.90;;;;;;5010752;28;20470;-62
2023/04/11 11:41:39;;;;;;;4.37;2.50;;;14.60;99.90;;;;;;5009971;28;20507;-64
2023/04/11 11:44:05;;;;;;;3.87;2.07;;;14.50;99.90;;;;;;5003181;28;20451;-62
2023/04/11 11:46:32;;;;;;;6.07;2.67;;;14.70;99.90;;;;;;5007331;28;20955;-63
2023/04/11 11:49:04;;;;;;;7.87;2.40;;;15.00;99.90;;;;;;5013988;28;20452;-63
2023/04/11 11:51:46;;;;;;;7.47;2.63;;;15.20;99.90;;;;;;5011613;28;20476;-63
2023/04/11 11:54:12;;;;;;;4.33;2.43;;;15.30;99.90;;;;;;5012628;28;21153;-64
2023/04/11 11:56:39;;;;;;;5.87;2.90;;;15.50;98.50;;;;;;5009553;28;20454;-63
2023/04/11 11:59:06;;;;;;;5.90;3.00;;;15.90;97.90;;;;;;5009104;28;20207;-63
2023/04/11 12:01:36;;;;;;;8.40;2.57;;;15.90;97.60;;;;;;5008380;28;20516;-63
2023/04/11 12:04:05;;;;;;;4.83;2.50;;;15.90;98.00;;;;;;5004188;28;20496;-62
2023/04/11 12:06:31;;;;;;;5.00;2.57;;;15.70;98.00;;;;;;5008109;28;20556;-62
2023/04/11 12:09:08;;;;;;;4.13;2.00;;;15.20;98.90;;;;;;5010708;28;20439;-63
2023/04/11 12:11:41;;;;;;;5.40;2.60;;;14.70;99.60;;;;;;5010390;28;20450;-62
2023/04/11 12:14:07;;;;;;;3.60;2.67;;;14.60;99.90;;;;;;5011375;28;20936;-63
2023/04/11 12:16:36;;;;;;;3.70;2.67;;;14.80;99.90;;;;;;5008245;28;20518;-63
2023/04/11 12:19:03;;;;;;;3.50;2.23;;;15.00;99.90;;;;;;5014811;28;20522;-63
2023/04/11 12:21:29;;;;;;;6.47;2.87;;;15.20;99.90;;;;;;5014349;28;20463;-63
2023/04/11 12:23:54;;;;;;;9.50;3.53;;;15.40;99.90;;;;;;5013641;28;20442;-63
2023/04/11 12:26:20;;;;;;;4.50;2.47;;;15.60;99.90;;;;;;5011791;28;20846;-63
2023/04/11 12:28:46;;;;;;;5.67;3.20;;;15.90;99.90;;;;;;5016738;28;20189;-63
2023/04/11 12:31:13;;;;;;;7.93;2.80;;;15.80;99.90;;;;;;5006181;28;20204;-63
2023/04/11 12:33:38;;;;;;;8.93;2.93;;;15.70;99.90;;;;;;5012088;28;20454;-64
2023/04/11 12:36:08;;;;;;;5.00;2.67;;;15.60;99.80;;;;;;5010486;28;20439;-63
2023/04/11 12:38:33;;;;;;;3.73;2.27;;;15.50;99.90;;;;;;5009302;28;20280;-65
2023/04/11 12:40:59;;;;;;;7.23;3.00;;;15.10;99.90;;;;;;5011236;28;20592;-65
2023/04/11 12:43:25;;;;;;;5.30;2.87;;;15.10;99.90;;;;;;5016640;28;20185;-64
2023/04/11 12:45:50;;;;;;;9.00;3.97;;;15.10;99.90;;;;;;5016344;28;20213;-64
2023/04/11 12:48:16;;;;;;;8.30;2.70;;;15.00;98.40;;;;;;5013520;28;20185;-64